sensor_id;sensor_type;location;lat;lon;timestamp;P1;durP1;ratioP1;P2;durP2;ratioP2
34481;SDS011;20720;48.886;9.388;2023-09-08T00:01:40;7.50;;;4.00;;
34481;SDS011;20720;48.886;9.388;2023-09-08T00:04:05;6.20;;;4.22;;
34481;SDS011;20720;48.886;9.388;2023-09-08T00:06:31;5.60;;;3.50;;
34481;SDS011;20720;48.886;9.388;2023-09-08T00:08:56;5.03;;;3.70;;
34481;SDS011;20720;48.886;9.388;2023-09-08T00:11:21;8.15;;;3.80;;
34481;SDS011;20720;48.886;9.388;2023-09-08T00:13:47;6.35;;;3.90;;
34481;SDS011;20720;48.886;9.388;2023-09-08T00:16:12;4.90;;;3.70;;
34481;SDS011;20720;48.886;9.388;2023-09-08T00:18:37;6.55;;;4.00;;
34481;SDS011;20720;48.886;9.388;2023-09-08T00:21:03;5.82;;;4.53;;
34481;SDS011;20720;48.886;9.388;2023-09-08T00:23:28;7.00;;;4.68;;
34481;SDS011;20720;48.886;9.388;2023-09-08T00:25:54;5.65;;;4.05;;
34481;SDS011;20720;48.886;9.388;2023-09-08T00:28:19;7.72;;;4.18;;
34481;SDS011;20720;48.886;9.388;2023-09-08T00:30:44;5.07;;;3.83;;
34481;SDS011;20720;48.886;9.388;2023-09-08T00:33:10;6.32;;;4.43;;
34481;SDS011;20720;48.886;9.388;2023-09-08T00:35:37;5.10;;;3.83;;
34481;SDS011;20720;48.886;9.388;2023-09-08T00:38:03;8.13;;;4.45;;
34481;SDS011;20720;48.886;9.388;2023-09-08T00:40:28;6.65;;;4.85;;
34481;SDS011;20720;48.886;9.388;2023-09-08T00:42:54;7.18;;;4.47;;
34481;SDS011;20720;48.886;9.388;2023-09-08T00:45:19;9.10;;;4.53;;
34481;SDS011;20720;48.886;9.388;2023-09-08T00:47:45;9.55;;;4.68;;
34481;SDS011;20720;48.886;9.388;2023-09-08T00:50:10;8.02;;;4.88;;
34481;SDS011;20720;48.886;9.388;2023-09-08T00:52:36;6.43;;;4.47;;
34481;SDS011;20720;48.886;9.388;2023-09-08T00:55:02;6.85;;;4.85;;
34481;SDS011;20720;48.886;9.388;2023-09-08T00:57:27;8.20;;;4.80;;
34481;SDS011;20720;48.886;9.388;2023-09-08T00:59:53;8.10;;;5.03;;
34481;SDS011;20720;48.886;9.388;2023-09-08T01:02:18;10.38;;;5.18;;
34481;SDS011;20720;48.886;9.388;2023-09-08T01:04:46;9.30;;;5.13;;
34481;SDS011;20720;48.886;9.388;2023-09-08T01:07:11;6.03;;;4.85;;
34481;SDS011;20720;48.886;9.388;2023-09-08T01:09:37;9.00;;;4.97;;
34481;SDS011;20720;48.886;9.388;2023-09-08T01:12:03;7.70;;;4.60;;
34481;SDS011;20720;48.886;9.388;2023-09-08T01:14:31;6.32;;;4.63;;
34481;SDS011;20720;48.886;9.388;2023-09-08T01:16:57;6.63;;;4.93;;
34481;SDS011;20720;48.886;9.388;2023-09-08T01:19:22;7.35;;;4.90;;
34481;SDS011;20720;48.886;9.388;2023-09-08T01:27:24;10.32;;;4.28;;
34481;SDS011;20720;48.886;9.388;2023-09-08T01:29:52;7.13;;;4.80;;
34481;SDS011;20720;48.886;9.388;2023-09-08T01:32:18;6.47;;;4.90;;
34481;SDS011;20720;48.886;9.388;2023-09-08T01:34:44;8.35;;;5.00;;
34481;SDS011;20720;48.886;9.388;2023-09-08T01:37:10;6.20;;;4.80;;
34481;SDS011;20720;48.886;9.388;2023-09-08T01:39:36;10.50;;;5.00;;
34481;SDS011;20720;48.886;9.388;2023-09-08T01:42:01;7.50;;;4.70;;
34481;SDS011;20720;48.886;9.388;2023-09-08T01:44:26;6.78;;;4.97;;
34481;SDS011;20720;48.886;9.388;2023-09-08T01:46:51;7.40;;;4.60;;
34481;SDS011;20720;48.886;9.388;2023-09-08T01:49:21;7.53;;;5.03;;
34481;SDS011;20720;48.886;9.388;2023-09-08T01:51:47;6.55;;;4.45;;
34481;SDS011;20720;48.886;9.388;2023-09-08T01:54:12;7.78;;;4.63;;
34481;SDS011;20720;48.886;9.388;2023-09-08T01:56:37;7.38;;;4.28;;
34481;SDS011;20720;48.886;9.388;2023-09-08T01:59:03;5.40;;;4.15;;
34481;SDS011;20720;48.886;9.388;2023-09-08T02:01:29;8.18;;;4.93;;
34481;SDS011;20720;48.886;9.388;2023-09-08T02:03:54;6.40;;;4.28;;
34481;SDS011;20720;48.886;9.388;2023-09-08T02:06:19;7.63;;;4.38;;
34481;SDS011;20720;48.886;9.388;2023-09-08T02:08:44;8.02;;;4.40;;
34481;SDS011;20720;48.886;9.388;2023-09-08T02:11:10;7.07;;;4.60;;
34481;SDS011;20720;48.886;9.388;2023-09-08T02:13:35;7.03;;;4.85;;
34481;SDS011;20720;48.886;9.388;2023-09-08T02:16:01;7.75;;;4.97;;
34481;SDS011;20720;48.886;9.388;2023-09-08T02:18:27;6.30;;;4.38;;
34481;SDS011;20720;48.886;9.388;2023-09-08T02:20:53;6.25;;;4.85;;
34481;SDS011;20720;48.886;9.388;2023-09-08T02:23:18;7.03;;;4.68;;
34481;SDS011;20720;48.886;9.388;2023-09-08T02:25:43;7.47;;;4.53;;
34481;SDS011;20720;48.886;9.388;2023-09-08T02:28:09;6.22;;;4.88;;
34481;SDS011;20720;48.886;9.388;2023-09-08T02:30:34;6.13;;;4.50;;
34481;SDS011;20720;48.886;9.388;2023-09-08T02:32:59;6.65;;;4.70;;
34481;SDS011;20720;48.886;9.388;2023-09-08T02:35:24;7.30;;;5.35;;
34481;SDS011;20720;48.886;9.388;2023-09-08T02:37:50;9.32;;;5.82;;
34481;SDS011;20720;48.886;9.388;2023-09-08T02:40:15;7.00;;;5.15;;
34481;SDS011;20720;48.886;9.388;2023-09-08T02:42:40;8.02;;;5.90;;
34481;SDS011;20720;48.886;9.388;2023-09-08T02:45:06;8.13;;;5.63;;
34481;SDS011;20720;48.886;9.388;2023-09-08T02:47:32;6.70;;;5.07;;
34481;SDS011;20720;48.886;9.388;2023-09-08T02:49:57;7.80;;;5.07;;
34481;SDS011;20720;48.886;9.388;2023-09-08T02:52:22;7.30;;;5.10;;
34481;SDS011;20720;48.886;9.388;2023-09-08T02:54:47;5.90;;;4.53;;
34481;SDS011;20720;48.886;9.388;2023-09-08T02:57:13;8.02;;;4.82;;
34481;SDS011;20720;48.886;9.388;2023-09-08T02:59:38;6.05;;;4.30;;
34481;SDS011;20720;48.886;9.388;2023-09-08T03:02:04;6.68;;;4.85;;
34481;SDS011;20720;48.886;9.388;2023-09-08T03:04:29;6.45;;;4.45;;
34481;SDS011;20720;48.886;9.388;2023-09-08T03:06:54;7.93;;;4.90;;
34481;SDS011;20720;48.886;9.388;2023-09-08T03:09:19;6.97;;;4.18;;
34481;SDS011;20720;48.886;9.388;2023-09-08T03:11:45;8.55;;;4.47;;
34481;SDS011;20720;48.886;9.388;2023-09-08T03:14:10;9.20;;;4.78;;
34481;SDS011;20720;48.886;9.388;2023-09-08T03:16:35;7.30;;;4.88;;
34481;SDS011;20720;48.886;9.388;2023-09-08T03:19:00;11.70;;;4.78;;
34481;SDS011;20720;48.886;9.388;2023-09-08T03:21:26;9.35;;;4.75;;
34481;SDS011;20720;48.886;9.388;2023-09-08T03:23:51;6.75;;;4.72;;
34481;SDS011;20720;48.886;9.388;2023-09-08T03:26:16;7.03;;;4.32;;
34481;SDS011;20720;48.886;9.388;2023-09-08T03:28:42;9.82;;;4.95;;
34481;SDS011;20720;48.886;9.388;2023-09-08T03:31:07;8.68;;;5.15;;
34481;SDS011;20720;48.886;9.388;2023-09-08T03:33:33;6.20;;;4.53;;
34481;SDS011;20720;48.886;9.388;2023-09-08T03:35:58;6.60;;;4.72;;
34481;SDS011;20720;48.886;9.388;2023-09-08T03:38:24;7.88;;;4.90;;
34481;SDS011;20720;48.886;9.388;2023-09-08T03:40:49;6.55;;;4.55;;
34481;SDS011;20720;48.886;9.388;2023-09-08T03:43:14;6.45;;;4.63;;
34481;SDS011;20720;48.886;9.388;2023-09-08T03:45:39;10.35;;;5.18;;
34481;SDS011;20720;48.886;9.388;2023-09-08T03:48:05;8.55;;;5.43;;
34481;SDS011;20720;48.886;9.388;2023-09-08T03:50:31;8.38;;;5.30;;
34481;SDS011;20720;48.886;9.388;2023-09-08T03:52:56;8.10;;;4.85;;
34481;SDS011;20720;48.886;9.388;2023-09-08T03:55:22;6.95;;;5.10;;
34481;SDS011;20720;48.886;9.388;2023-09-08T03:57:47;8.18;;;5.50;;
34481;SDS011;20720;48.886;9.388;2023-09-08T04:00:13;6.43;;;4.88;;
34481;SDS011;20720;48.886;9.388;2023-09-08T04:02:44;10.57;;;6.10;;
34481;SDS011;20720;48.886;9.388;2023-09-08T04:05:09;7.95;;;5.43;;
34481;SDS011;20720;48.886;9.388;2023-09-08T04:07:35;9.32;;;5.30;;
34481;SDS011;20720;48.886;9.388;2023-09-08T04:10:00;6.20;;;4.57;;
34481;SDS011;20720;48.886;9.388;2023-09-08T04:12:26;7.85;;;4.75;;
34481;SDS011;20720;48.886;9.388;2023-09-08T04:14:51;7.40;;;4.80;;
34481;SDS011;20720;48.886;9.388;2023-09-08T04:17:17;11.00;;;4.80;;
34481;SDS011;20720;48.886;9.388;2023-09-08T04:19:43;8.07;;;4.45;;
34481;SDS011;20720;48.886;9.388;2023-09-08T04:22:08;6.40;;;4.35;;
34481;SDS011;20720;48.886;9.388;2023-09-08T04:24:34;6.85;;;4.78;;
34481;SDS011;20720;48.886;9.388;2023-09-08T04:27:01;6.97;;;5.00;;
34481;SDS011;20720;48.886;9.388;2023-09-08T04:29:26;8.45;;;5.15;;
34481;SDS011;20720;48.886;9.388;2023-09-08T04:31:51;7.78;;;4.70;;
34481;SDS011;20720;48.886;9.388;2023-09-08T04:34:16;6.30;;;4.65;;
34481;SDS011;20720;48.886;9.388;2023-09-08T04:36:43;8.15;;;4.90;;
34481;SDS011;20720;48.886;9.388;2023-09-08T04:39:08;7.00;;;4.82;;
34481;SDS011;20720;48.886;9.388;2023-09-08T04:41:36;9.38;;;4.57;;
34481;SDS011;20720;48.886;9.388;2023-09-08T04:44:01;6.80;;;5.13;;
34481;SDS011;20720;48.886;9.388;2023-09-08T04:46:26;7.55;;;4.85;;
34481;SDS011;20720;48.886;9.388;2023-09-08T04:48:52;9.23;;;5.38;;
34481;SDS011;20720;48.886;9.388;2023-09-08T04:51:17;6.63;;;4.78;;
34481;SDS011;20720;48.886;9.388;2023-09-08T04:53:42;7.22;;;4.97;;
34481;SDS011;20720;48.886;9.388;2023-09-08T04:56:08;7.78;;;4.60;;
34481;SDS011;20720;48.886;9.388;2023-09-08T04:58:33;6.22;;;4.60;;
34481;SDS011;20720;48.886;9.388;2023-09-08T05:00:58;6.60;;;4.65;;
34481;SDS011;20720;48.886;9.388;2023-09-08T05:03:23;5.95;;;4.65;;
34481;SDS011;20720;48.886;9.388;2023-09-08T05:05:51;8.05;;;5.18;;
34481;SDS011;20720;48.886;9.388;2023-09-08T05:08:16;8.52;;;5.30;;
34481;SDS011;20720;48.886;9.388;2023-09-08T05:10:43;6.53;;;5.25;;
34481;SDS011;20720;48.886;9.388;2023-09-08T05:13:09;7.22;;;4.90;;
34481;SDS011;20720;48.886;9.388;2023-09-08T05:15:34;8.85;;;5.25;;
34481;SDS011;20720;48.886;9.388;2023-09-08T05:17:59;6.80;;;4.88;;
34481;SDS011;20720;48.886;9.388;2023-09-08T05:20:25;7.03;;;5.28;;
34481;SDS011;20720;48.886;9.388;2023-09-08T05:22:51;7.43;;;5.05;;
34481;SDS011;20720;48.886;9.388;2023-09-08T05:25:16;8.30;;;5.13;;
34481;SDS011;20720;48.886;9.388;2023-09-08T05:27:41;6.35;;;4.93;;
34481;SDS011;20720;48.886;9.388;2023-09-08T05:30:07;7.93;;;5.30;;
34481;SDS011;20720;48.886;9.388;2023-09-08T05:32:32;8.55;;;5.50;;
34481;SDS011;20720;48.886;9.388;2023-09-08T05:34:58;9.77;;;4.97;;
34481;SDS011;20720;48.886;9.388;2023-09-08T05:37:23;8.88;;;4.95;;
34481;SDS011;20720;48.886;9.388;2023-09-08T05:39:48;8.65;;;5.30;;
34481;SDS011;20720;48.886;9.388;2023-09-08T05:42:13;7.57;;;5.53;;
34481;SDS011;20720;48.886;9.388;2023-09-08T05:44:39;12.43;;;5.95;;
34481;SDS011;20720;48.886;9.388;2023-09-08T05:47:05;6.82;;;5.30;;
34481;SDS011;20720;48.886;9.388;2023-09-08T05:49:30;7.60;;;5.80;;
34481;SDS011;20720;48.886;9.388;2023-09-08T05:51:55;9.95;;;5.55;;
34481;SDS011;20720;48.886;9.388;2023-09-08T05:54:20;10.82;;;5.53;;
34481;SDS011;20720;48.886;9.388;2023-09-08T05:56:46;8.60;;;5.97;;
34481;SDS011;20720;48.886;9.388;2023-09-08T05:59:11;7.00;;;5.47;;
34481;SDS011;20720;48.886;9.388;2023-09-08T06:01:36;9.13;;;6.15;;
34481;SDS011;20720;48.886;9.388;2023-09-08T06:04:02;8.32;;;5.78;;
34481;SDS011;20720;48.886;9.388;2023-09-08T06:06:27;7.93;;;5.75;;
34481;SDS011;20720;48.886;9.388;2023-09-08T06:08:53;10.15;;;5.65;;
34481;SDS011;20720;48.886;9.388;2023-09-08T06:11:18;7.88;;;5.68;;
34481;SDS011;20720;48.886;9.388;2023-09-08T06:13:44;7.90;;;5.38;;
34481;SDS011;20720;48.886;9.388;2023-09-08T06:16:09;8.57;;;5.72;;
34481;SDS011;20720;48.886;9.388;2023-09-08T06:18:34;7.15;;;5.80;;
34481;SDS011;20720;48.886;9.388;2023-09-08T06:21:05;9.68;;;6.13;;
34481;SDS011;20720;48.886;9.388;2023-09-08T06:23:31;11.75;;;6.00;;
34481;SDS011;20720;48.886;9.388;2023-09-08T06:25:57;8.75;;;5.93;;
34481;SDS011;20720;48.886;9.388;2023-09-08T06:28:24;9.00;;;5.68;;
34481;SDS011;20720;48.886;9.388;2023-09-08T06:30:50;7.03;;;5.15;;
34481;SDS011;20720;48.886;9.388;2023-09-08T06:33:15;7.82;;;5.38;;
34481;SDS011;20720;48.886;9.388;2023-09-08T06:35:40;7.30;;;5.45;;
34481;SDS011;20720;48.886;9.388;2023-09-08T06:38:06;10.68;;;5.55;;
34481;SDS011;20720;48.886;9.388;2023-09-08T06:40:31;6.70;;;5.25;;
34481;SDS011;20720;48.886;9.388;2023-09-08T06:42:56;6.90;;;5.03;;
34481;SDS011;20720;48.886;9.388;2023-09-08T06:45:22;8.35;;;5.65;;
34481;SDS011;20720;48.886;9.388;2023-09-08T06:47:47;10.02;;;5.72;;
34481;SDS011;20720;48.886;9.388;2023-09-08T06:50:14;9.07;;;5.35;;
34481;SDS011;20720;48.886;9.388;2023-09-08T06:52:39;8.18;;;5.22;;
34481;SDS011;20720;48.886;9.388;2023-09-08T06:55:04;9.57;;;4.95;;
34481;SDS011;20720;48.886;9.388;2023-09-08T06:57:30;11.07;;;4.40;;
34481;SDS011;20720;48.886;9.388;2023-09-08T06:59:55;7.90;;;4.78;;
34481;SDS011;20720;48.886;9.388;2023-09-08T07:02:20;9.02;;;4.15;;
34481;SDS011;20720;48.886;9.388;2023-09-08T07:04:46;6.82;;;4.45;;
34481;SDS011;20720;48.886;9.388;2023-09-08T07:07:11;5.88;;;3.90;;
34481;SDS011;20720;48.886;9.388;2023-09-08T07:09:36;7.20;;;4.80;;
34481;SDS011;20720;48.886;9.388;2023-09-08T07:12:02;6.65;;;4.63;;
34481;SDS011;20720;48.886;9.388;2023-09-08T07:14:31;4.90;;;4.07;;
34481;SDS011;20720;48.886;9.388;2023-09-08T07:16:56;5.28;;;3.90;;
34481;SDS011;20720;48.886;9.388;2023-09-08T07:19:22;7.45;;;4.15;;
34481;SDS011;20720;48.886;9.388;2023-09-08T07:21:47;6.82;;;4.20;;
34481;SDS011;20720;48.886;9.388;2023-09-08T07:24:12;5.97;;;4.25;;
34481;SDS011;20720;48.886;9.388;2023-09-08T07:26:38;9.18;;;4.07;;
34481;SDS011;20720;48.886;9.388;2023-09-08T07:29:03;5.35;;;4.00;;
34481;SDS011;20720;48.886;9.388;2023-09-08T07:31:28;7.18;;;4.30;;
34481;SDS011;20720;48.886;9.388;2023-09-08T07:33:53;4.78;;;3.75;;
34481;SDS011;20720;48.886;9.388;2023-09-08T07:36:19;5.65;;;3.95;;
34481;SDS011;20720;48.886;9.388;2023-09-08T07:38:44;5.40;;;3.70;;
34481;SDS011;20720;48.886;9.388;2023-09-08T07:41:09;5.90;;;4.23;;
34481;SDS011;20720;48.886;9.388;2023-09-08T07:43:34;8.23;;;3.83;;
34481;SDS011;20720;48.886;9.388;2023-09-08T07:46:02;6.35;;;3.95;;
34481;SDS011;20720;48.886;9.388;2023-09-08T07:48:28;6.68;;;3.60;;
34481;SDS011;20720;48.886;9.388;2023-09-08T07:50:53;5.32;;;3.55;;
34481;SDS011;20720;48.886;9.388;2023-09-08T07:53:18;5.97;;;3.83;;
34481;SDS011;20720;48.886;9.388;2023-09-08T07:55:44;6.97;;;3.63;;
34481;SDS011;20720;48.886;9.388;2023-09-08T07:58:09;6.22;;;3.63;;
34481;SDS011;20720;48.886;9.388;2023-09-08T08:00:34;5.85;;;3.95;;
34481;SDS011;20720;48.886;9.388;2023-09-08T08:02:59;6.22;;;3.20;;
34481;SDS011;20720;48.886;9.388;2023-09-08T08:05:25;9.90;;;3.42;;
34481;SDS011;20720;48.886;9.388;2023-09-08T08:07:50;4.10;;;2.75;;
34481;SDS011;20720;48.886;9.388;2023-09-08T08:10:16;6.63;;;3.70;;
34481;SDS011;20720;48.886;9.388;2023-09-08T08:12:42;4.38;;;3.35;;
34481;SDS011;20720;48.886;9.388;2023-09-08T08:15:08;7.50;;;3.45;;
34481;SDS011;20720;48.886;9.388;2023-09-08T08:17:35;5.93;;;3.30;;
34481;SDS011;20720;48.886;9.388;2023-09-08T08:20:01;7.18;;;3.20;;
34481;SDS011;20720;48.886;9.388;2023-09-08T08:22:35;4.80;;;3.17;;
34481;SDS011;20720;48.886;9.388;2023-09-08T08:25:01;4.22;;;2.88;;
34481;SDS011;20720;48.886;9.388;2023-09-08T08:27:28;4.03;;;3.30;;
34481;SDS011;20720;48.886;9.388;2023-09-08T08:29:53;4.55;;;2.88;;
34481;SDS011;20720;48.886;9.388;2023-09-08T08:32:18;5.10;;;3.25;;
34481;SDS011;20720;48.886;9.388;2023-09-08T08:34:44;4.45;;;2.75;;
34481;SDS011;20720;48.886;9.388;2023-09-08T08:37:10;3.83;;;2.90;;
34481;SDS011;20720;48.886;9.388;2023-09-08T08:39:35;6.43;;;3.80;;
34481;SDS011;20720;48.886;9.388;2023-09-08T08:42:07;6.30;;;3.13;;
34481;SDS011;20720;48.886;9.388;2023-09-08T08:44:33;6.28;;;2.95;;
34481;SDS011;20720;48.886;9.388;2023-09-08T08:47:00;4.00;;;2.85;;
34481;SDS011;20720;48.886;9.388;2023-09-08T08:49:28;4.63;;;3.25;;
34481;SDS011;20720;48.886;9.388;2023-09-08T08:51:56;4.70;;;3.20;;
34481;SDS011;20720;48.886;9.388;2023-09-08T08:54:23;3.42;;;2.70;;
34481;SDS011;20720;48.886;9.388;2023-09-08T08:56:49;3.65;;;3.00;;
34481;SDS011;20720;48.886;9.388;2023-09-08T08:59:14;7.32;;;3.45;;
34481;SDS011;20720;48.886;9.388;2023-09-08T09:01:41;5.95;;;2.90;;
34481;SDS011;20720;48.886;9.388;2023-09-08T09:04:06;6.22;;;2.95;;
34481;SDS011;20720;48.886;9.388;2023-09-08T09:06:33;3.50;;;2.72;;
34481;SDS011;20720;48.886;9.388;2023-09-08T09:08:59;7.35;;;3.33;;
34481;SDS011;20720;48.886;9.388;2023-09-08T09:11:24;3.95;;;2.78;;
34481;SDS011;20720;48.886;9.388;2023-09-08T09:13:50;3.53;;;2.78;;
34481;SDS011;20720;48.886;9.388;2023-09-08T09:16:15;3.47;;;2.60;;
34481;SDS011;20720;48.886;9.388;2023-09-08T09:18:57;6.03;;;3.20;;
34481;SDS011;20720;48.886;9.388;2023-09-08T09:21:24;4.07;;;3.20;;
34481;SDS011;20720;48.886;9.388;2023-09-08T09:24:05;6.07;;;3.00;;
34481;SDS011;20720;48.886;9.388;2023-09-08T09:26:31;3.63;;;3.00;;
34481;SDS011;20720;48.886;9.388;2023-09-08T09:28:56;5.07;;;3.10;;
34481;SDS011;20720;48.886;9.388;2023-09-08T09:31:24;4.88;;;2.90;;
34481;SDS011;20720;48.886;9.388;2023-09-08T09:34:03;7.35;;;3.63;;
34481;SDS011;20720;48.886;9.388;2023-09-08T09:36:32;4.22;;;2.60;;
34481;SDS011;20720;48.886;9.388;2023-09-08T09:38:58;3.80;;;2.83;;
34481;SDS011;20720;48.886;9.388;2023-09-08T09:41:27;3.70;;;2.90;;
34481;SDS011;20720;48.886;9.388;2023-09-08T09:43:54;3.92;;;3.08;;
34481;SDS011;20720;48.886;9.388;2023-09-08T09:46:20;4.57;;;2.85;;
34481;SDS011;20720;48.886;9.388;2023-09-08T09:48:49;4.97;;;3.00;;
34481;SDS011;20720;48.886;9.388;2023-09-08T09:51:16;4.38;;;2.95;;
34481;SDS011;20720;48.886;9.388;2023-09-08T09:53:44;4.93;;;2.70;;
34481;SDS011;20720;48.886;9.388;2023-09-08T09:56:09;4.03;;;2.75;;
34481;SDS011;20720;48.886;9.388;2023-09-08T09:58:37;6.38;;;2.88;;
34481;SDS011;20720;48.886;9.388;2023-09-08T10:01:02;4.30;;;3.17;;
34481;SDS011;20720;48.886;9.388;2023-09-08T10:03:29;3.40;;;2.80;;
34481;SDS011;20720;48.886;9.388;2023-09-08T10:05:55;6.40;;;2.88;;
34481;SDS011;20720;48.886;9.388;2023-09-08T10:08:21;3.40;;;2.55;;
34481;SDS011;20720;48.886;9.388;2023-09-08T10:10:47;3.80;;;2.38;;
34481;SDS011;20720;48.886;9.388;2023-09-08T10:13:13;3.72;;;2.85;;
34481;SDS011;20720;48.886;9.388;2023-09-08T10:15:41;3.55;;;2.67;;
34481;SDS011;20720;48.886;9.388;2023-09-08T10:18:07;3.28;;;2.55;;
34481;SDS011;20720;48.886;9.388;2023-09-08T10:20:35;3.85;;;2.63;;
34481;SDS011;20720;48.886;9.388;2023-09-08T10:23:07;3.78;;;2.60;;
34481;SDS011;20720;48.886;9.388;2023-09-08T10:25:48;3.30;;;2.60;;
34481;SDS011;20720;48.886;9.388;2023-09-08T10:28:19;4.53;;;3.00;;
34481;SDS011;20720;48.886;9.388;2023-09-08T10:30:46;3.20;;;2.80;;
34481;SDS011;20720;48.886;9.388;2023-09-08T10:33:12;2.95;;;2.10;;
34481;SDS011;20720;48.886;9.388;2023-09-08T10:35:38;7.07;;;2.58;;
34481;SDS011;20720;48.886;9.388;2023-09-08T10:38:24;3.25;;;2.70;;
34481;SDS011;20720;48.886;9.388;2023-09-08T10:40:50;3.42;;;2.60;;
34481;SDS011;20720;48.886;9.388;2023-09-08T10:43:17;5.28;;;2.58;;
34481;SDS011;20720;48.886;9.388;2023-09-08T10:45:43;4.07;;;2.58;;
34481;SDS011;20720;48.886;9.388;2023-09-08T10:48:11;5.10;;;2.80;;
34481;SDS011;20720;48.886;9.388;2023-09-08T10:50:38;4.65;;;2.80;;
34481;SDS011;20720;48.886;9.388;2023-09-08T10:53:06;6.13;;;3.20;;
34481;SDS011;20720;48.886;9.388;2023-09-08T10:55:45;3.53;;;3.03;;
34481;SDS011;20720;48.886;9.388;2023-09-08T10:58:18;5.13;;;2.88;;
34481;SDS011;20720;48.886;9.388;2023-09-08T11:00:46;4.22;;;2.38;;
34481;SDS011;20720;48.886;9.388;2023-09-08T11:03:25;4.30;;;2.70;;
34481;SDS011;20720;48.886;9.388;2023-09-08T11:05:52;4.60;;;2.60;;
34481;SDS011;20720;48.886;9.388;2023-09-08T11:08:18;9.30;;;4.53;;
34481;SDS011;20720;48.886;9.388;2023-09-08T11:10:44;3.97;;;2.70;;
34481;SDS011;20720;48.886;9.388;2023-09-08T11:13:09;5.00;;;3.28;;
34481;SDS011;20720;48.886;9.388;2023-09-08T11:15:35;3.55;;;2.65;;
34481;SDS011;20720;48.886;9.388;2023-09-08T11:18:04;4.60;;;3.20;;
34481;SDS011;20720;48.886;9.388;2023-09-08T11:20:30;5.07;;;2.88;;
34481;SDS011;20720;48.886;9.388;2023-09-08T11:22:55;5.38;;;2.67;;
34481;SDS011;20720;48.886;9.388;2023-09-08T11:25:20;4.32;;;2.88;;
34481;SDS011;20720;48.886;9.388;2023-09-08T11:27:46;3.83;;;2.67;;
34481;SDS011;20720;48.886;9.388;2023-09-08T11:30:12;3.60;;;2.55;;
34481;SDS011;20720;48.886;9.388;2023-09-08T11:32:37;4.65;;;2.95;;
34481;SDS011;20720;48.886;9.388;2023-09-08T11:35:06;5.97;;;3.22;;
34481;SDS011;20720;48.886;9.388;2023-09-08T11:37:37;5.50;;;2.50;;
34481;SDS011;20720;48.886;9.388;2023-09-08T11:40:05;4.15;;;3.10;;
34481;SDS011;20720;48.886;9.388;2023-09-08T11:42:38;4.80;;;2.80;;
34481;SDS011;20720;48.886;9.388;2023-09-08T11:45:09;3.70;;;3.00;;
34481;SDS011;20720;48.886;9.388;2023-09-08T11:47:41;4.20;;;2.72;;
34481;SDS011;20720;48.886;9.388;2023-09-08T11:50:08;4.20;;;2.72;;
34481;SDS011;20720;48.886;9.388;2023-09-08T11:52:36;4.88;;;3.00;;
34481;SDS011;20720;48.886;9.388;2023-09-08T11:55:02;5.00;;;3.00;;
34481;SDS011;20720;48.886;9.388;2023-09-08T11:57:28;4.05;;;2.60;;
34481;SDS011;20720;48.886;9.388;2023-09-08T11:59:53;4.15;;;2.90;;
34481;SDS011;20720;48.886;9.388;2023-09-08T12:02:19;5.03;;;2.67;;
34481;SDS011;20720;48.886;9.388;2023-09-08T12:04:44;4.07;;;2.58;;
34481;SDS011;20720;48.886;9.388;2023-09-08T12:07:12;4.88;;;3.50;;
34481;SDS011;20720;48.886;9.388;2023-09-08T12:09:40;3.63;;;2.85;;
34481;SDS011;20720;48.886;9.388;2023-09-08T12:12:06;6.28;;;2.80;;
34481;SDS011;20720;48.886;9.388;2023-09-08T12:14:40;3.78;;;2.70;;
34481;SDS011;20720;48.886;9.388;2023-09-08T12:17:07;6.07;;;2.90;;
34481;SDS011;20720;48.886;9.388;2023-09-08T12:19:32;5.60;;;2.90;;
34481;SDS011;20720;48.886;9.388;2023-09-08T12:22:01;4.22;;;2.63;;
34481;SDS011;20720;48.886;9.388;2023-09-08T12:27:19;4.05;;;2.97;;
34481;SDS011;20720;48.886;9.388;2023-09-08T12:32:23;5.13;;;2.70;;
34481;SDS011;20720;48.886;9.388;2023-09-08T12:34:50;5.45;;;2.40;;
34481;SDS011;20720;48.886;9.388;2023-09-08T12:37:23;3.25;;;2.50;;
34481;SDS011;20720;48.886;9.388;2023-09-08T12:39:49;4.20;;;2.80;;
34481;SDS011;20720;48.886;9.388;2023-09-08T12:42:15;3.05;;;2.20;;
34481;SDS011;20720;48.886;9.388;2023-09-08T12:44:40;4.55;;;2.50;;
34481;SDS011;20720;48.886;9.388;2023-09-08T12:47:06;4.22;;;2.65;;
34481;SDS011;20720;48.886;9.388;2023-09-08T12:49:31;2.92;;;2.25;;
34481;SDS011;20720;48.886;9.388;2023-09-08T12:51:57;3.75;;;2.70;;
34481;SDS011;20720;48.886;9.388;2023-09-08T12:54:22;4.10;;;2.87;;
34481;SDS011;20720;48.886;9.388;2023-09-08T12:56:47;3.53;;;2.37;;
34481;SDS011;20720;48.886;9.388;2023-09-08T12:59:13;3.13;;;2.28;;
34481;SDS011;20720;48.886;9.388;2023-09-08T13:01:38;5.28;;;2.67;;
34481;SDS011;20720;48.886;9.388;2023-09-08T13:04:03;5.65;;;2.60;;
34481;SDS011;20720;48.886;9.388;2023-09-08T13:06:29;3.55;;;2.70;;
34481;SDS011;20720;48.886;9.388;2023-09-08T13:08:54;2.97;;;2.45;;
34481;SDS011;20720;48.886;9.388;2023-09-08T13:11:19;5.67;;;2.60;;
34481;SDS011;20720;48.886;9.388;2023-09-08T13:13:44;3.47;;;2.60;;
34481;SDS011;20720;48.886;9.388;2023-09-08T13:16:10;4.17;;;2.67;;
34481;SDS011;20720;48.886;9.388;2023-09-08T13:18:35;6.93;;;3.20;;
34481;SDS011;20720;48.886;9.388;2023-09-08T13:21:03;3.60;;;2.38;;
34481;SDS011;20720;48.886;9.388;2023-09-08T13:23:29;4.03;;;2.58;;
34481;SDS011;20720;48.886;9.388;2023-09-08T13:25:54;3.75;;;2.60;;
34481;SDS011;20720;48.886;9.388;2023-09-08T13:28:20;4.90;;;2.40;;
34481;SDS011;20720;48.886;9.388;2023-09-08T13:30:45;4.55;;;2.80;;
34481;SDS011;20720;48.886;9.388;2023-09-08T13:33:10;4.45;;;2.50;;
34481;SDS011;20720;48.886;9.388;2023-09-08T13:35:36;3.85;;;2.60;;
34481;SDS011;20720;48.886;9.388;2023-09-08T13:38:03;3.88;;;2.50;;
34481;SDS011;20720;48.886;9.388;2023-09-08T13:40:28;5.13;;;2.60;;
34481;SDS011;20720;48.886;9.388;2023-09-08T13:42:54;3.67;;;2.47;;
34481;SDS011;20720;48.886;9.388;2023-09-08T13:45:19;4.13;;;2.43;;
34481;SDS011;20720;48.886;9.388;2023-09-08T13:47:44;3.33;;;2.40;;
34481;SDS011;20720;48.886;9.388;2023-09-08T13:50:10;4.50;;;2.20;;
34481;SDS011;20720;48.886;9.388;2023-09-08T13:52:35;4.90;;;2.30;;
34481;SDS011;20720;48.886;9.388;2023-09-08T13:55:00;3.53;;;2.50;;
34481;SDS011;20720;48.886;9.388;2023-09-08T13:57:26;3.78;;;2.47;;
34481;SDS011;20720;48.886;9.388;2023-09-08T13:59:51;3.40;;;2.22;;
34481;SDS011;20720;48.886;9.388;2023-09-08T14:02:19;2.78;;;2.33;;
34481;SDS011;20720;48.886;9.388;2023-09-08T14:04:44;4.20;;;2.40;;
34481;SDS011;20720;48.886;9.388;2023-09-08T14:07:09;3.23;;;2.20;;
34481;SDS011;20720;48.886;9.388;2023-09-08T14:09:35;3.17;;;2.30;;
34481;SDS011;20720;48.886;9.388;2023-09-08T14:12:01;3.10;;;2.30;;
34481;SDS011;20720;48.886;9.388;2023-09-08T14:14:26;3.97;;;2.38;;
34481;SDS011;20720;48.886;9.388;2023-09-08T14:16:51;3.55;;;2.38;;
34481;SDS011;20720;48.886;9.388;2023-09-08T14:19:17;3.83;;;2.47;;
34481;SDS011;20720;48.886;9.388;2023-09-08T14:21:42;2.20;;;2.00;;
34481;SDS011;20720;48.886;9.388;2023-09-08T14:24:07;5.95;;;2.47;;
34481;SDS011;20720;48.886;9.388;2023-09-08T14:26:33;4.60;;;2.42;;
34481;SDS011;20720;48.886;9.388;2023-09-08T14:28:58;5.13;;;2.28;;
34481;SDS011;20720;48.886;9.388;2023-09-08T14:31:23;4.43;;;2.40;;
34481;SDS011;20720;48.886;9.388;2023-09-08T14:33:48;3.80;;;2.20;;
34481;SDS011;20720;48.886;9.388;2023-09-08T14:36:17;5.35;;;2.55;;
34481;SDS011;20720;48.886;9.388;2023-09-08T14:38:44;3.13;;;2.42;;
34481;SDS011;20720;48.886;9.388;2023-09-08T14:41:09;4.63;;;2.33;;
34481;SDS011;20720;48.886;9.388;2023-09-08T14:43:34;3.30;;;2.30;;
34481;SDS011;20720;48.886;9.388;2023-09-08T14:46:00;3.10;;;2.22;;
34481;SDS011;20720;48.886;9.388;2023-09-08T14:48:27;3.50;;;2.30;;
34481;SDS011;20720;48.886;9.388;2023-09-08T14:50:54;3.15;;;2.00;;
34481;SDS011;20720;48.886;9.388;2023-09-08T14:53:20;3.63;;;2.22;;